sensor_id;sensor_type;location;lat;lon;timestamp;temperature;humidity
13074;DHT22;6603;47.066;15.396;2023-07-13T00:02:17;20.10;1.00
13074;DHT22;6603;47.066;15.396;2023-07-13T00:04:42;20.00;1.00
13074;DHT22;6603;47.066;15.396;2023-07-13T00:07:09;19.90;1.00
13074;DHT22;6603;47.066;15.396;2023-07-13T00:09:35;19.90;1.00
13074;DHT22;6603;47.066;15.396;2023-07-13T00:12:02;19.80;1.00
13074;DHT22;6603;47.066;15.396;2023-07-13T00:14:29;19.80;1.00
13074;DHT22;6603;47.066;15.396;2023-07-13T00:16:55;19.90;1.00
13074;DHT22;6603;47.066;15.396;2023-07-13T00:19:22;20.00;1.00
13074;DHT22;6603;47.066;15.396;2023-07-13T00:21:50;20.10;1.00
13074;DHT22;6603;47.066;15.396;2023-07-13T00:24:17;20.10;1.00
13074;DHT22;6603;47.066;15.396;2023-07-13T00:26:49;19.90;1.00
13074;DHT22;6603;47.066;15.396;2023-07-13T00:29:15;19.90;1.00
13074;DHT22;6603;47.066;15.396;2023-07-13T00:31:42;19.80;1.00
13074;DHT22;6603;47.066;15.396;2023-07-13T00:34:09;19.70;1.30
13074;DHT22;6603;47.066;15.396;2023-07-13T00:36:35;19.60;1.00
13074;DHT22;6603;47.066;15.396;2023-07-13T00:39:02;19.70;11.20
13074;DHT22;6603;47.066;15.396;2023-07-13T00:41:30;19.80;1.00
13074;DHT22;6603;47.066;15.396;2023-07-13T00:43:57;19.80;1.00
13074;DHT22;6603;47.066;15.396;2023-07-13T00:46:28;19.90;1.00
13074;DHT22;6603;47.066;15.396;2023-07-13T00:48:59;19.90;17.80
13074;DHT22;6603;47.066;15.396;2023-07-13T00:51:56;19.80;1.00
13074;DHT22;6603;47.066;15.396;2023-07-13T00:54:43;19.90;1.00
13074;DHT22;6603;47.066;15.396;2023-07-13T00:57:16;20.10;1.00
13074;DHT22;6603;47.066;15.396;2023-07-13T00:59:47;20.20;1.00
13074;DHT22;6603;47.066;15.396;2023-07-13T01:02:14;20.00;1.00
13074;DHT22;6603;47.066;15.396;2023-07-13T01:04:40;20.10;1.00
13074;DHT22;6603;47.066;15.396;2023-07-13T01:07:09;20.10;1.00
13074;DHT22;6603;47.066;15.396;2023-07-13T01:09:36;20.10;1.00
13074;DHT22;6603;47.066;15.396;2023-07-13T01:12:02;20.10;1.00
13074;DHT22;6603;47.066;15.396;2023-07-13T01:14:29;20.20;1.00
13074;DHT22;6603;47.066;15.396;2023-07-13T01:16:55;20.30;1.00
13074;DHT22;6603;47.066;15.396;2023-07-13T01:22:03;20.30;1.00
13074;DHT22;6603;47.066;15.396;2023-07-13T01:24:29;20.10;1.00
13074;DHT22;6603;47.066;15.396;2023-07-13T01:26:55;20.30;15.70
13074;DHT22;6603;47.066;15.396;2023-07-13T01:29:21;20.20;55.40
13074;DHT22;6603;47.066;15.396;2023-07-13T01:31:47;20.20;28.70
13074;DHT22;6603;47.066;15.396;2023-07-13T01:34:13;20.20;1.00
13074;DHT22;6603;47.066;15.396;2023-07-13T01:36:39;20.10;22.40
13074;DHT22;6603;47.066;15.396;2023-07-13T01:39:05;20.00;13.70
13074;DHT22;6603;47.066;15.396;2023-07-13T01:41:31;20.10;1.00
13074;DHT22;6603;47.066;15.396;2023-07-13T01:43:57;19.80;99.90
13074;DHT22;6603;47.066;15.396;2023-07-13T01:46:23;19.50;99.90
13074;DHT22;6603;47.066;15.396;2023-07-13T01:48:49;19.10;99.90
13074;DHT22;6603;47.066;15.396;2023-07-13T01:51:16;18.80;99.90
13074;DHT22;6603;47.066;15.396;2023-07-13T01:53:42;18.60;99.90
13074;DHT22;6603;47.066;15.396;2023-07-13T01:56:08;18.50;99.90
13074;DHT22;6603;47.066;15.396;2023-07-13T01:58:34;18.30;99.90
13074;DHT22;6603;47.066;15.396;2023-07-13T02:01:00;18.20;99.90
13074;DHT22;6603;47.066;15.396;2023-07-13T02:03:26;18.10;99.90
13074;DHT22;6603;47.066;15.396;2023-07-13T02:05:52;18.10;99.90
13074;DHT22;6603;47.066;15.396;2023-07-13T02:08:18;18.10;99.90
13074;DHT22;6603;47.066;15.396;2023-07-13T02:10:43;18.10;99.90
13074;DHT22;6603;47.066;15.396;2023-07-13T02:13:09;18.10;99.90
13074;DHT22;6603;47.066;15.396;2023-07-13T02:15:39;18.10;99.90
13074;DHT22;6603;47.066;15.396;2023-07-13T02:18:06;18.20;99.90
13074;DHT22;6603;47.066;15.396;2023-07-13T02:20:32;18.10;99.90
13074;DHT22;6603;47.066;15.396;2023-07-13T02:22:59;18.10;99.90
13074;DHT22;6603;47.066;15.396;2023-07-13T02:25:25;18.20;99.90
13074;DHT22;6603;47.066;15.396;2023-07-13T02:27:52;18.30;99.90
13074;DHT22;6603;47.066;15.396;2023-07-13T02:30:18;18.30;99.90
13074;DHT22;6603;47.066;15.396;2023-07-13T02:32:45;18.30;99.90
13074;DHT22;6603;47.066;15.396;2023-07-13T02:35:11;18.30;99.90
13074;DHT22;6603;47.066;15.396;2023-07-13T02:37:37;18.30;99.90
13074;DHT22;6603;47.066;15.396;2023-07-13T02:40:03;18.20;99.90
13074;DHT22;6603;47.066;15.396;2023-07-13T02:42:34;18.20;99.90
13074;DHT22;6603;47.066;15.396;2023-07-13T02:45:00;18.10;99.90
13074;DHT22;6603;47.066;15.396;2023-07-13T02:47:26;18.00;99.90
13074;DHT22;6603;47.066;15.396;2023-07-13T02:49:52;17.90;99.90
13074;DHT22;6603;47.066;15.396;2023-07-13T02:52:19;17.90;99.90
13074;DHT22;6603;47.066;15.396;2023-07-13T02:54:45;18.00;99.90
13074;DHT22;6603;47.066;15.396;2023-07-13T02:57:11;18.00;99.90
13074;DHT22;6603;47.066;15.396;2023-07-13T02:59:37;18.00;99.90
13074;DHT22;6603;47.066;15.396;2023-07-13T03:02:03;18.00;99.90
13074;DHT22;6603;47.066;15.396;2023-07-13T03:04:29;18.10;99.90
13074;DHT22;6603;47.066;15.396;2023-07-13T03:06:55;18.10;99.90
13074;DHT22;6603;47.066;15.396;2023-07-13T03:09:24;18.20;99.90
13074;DHT22;6603;47.066;15.396;2023-07-13T03:11:55;18.30;99.90
13074;DHT22;6603;47.066;15.396;2023-07-13T03:14:22;18.30;99.90
13074;DHT22;6603;47.066;15.396;2023-07-13T03:16:49;18.20;99.90
13074;DHT22;6603;47.066;15.396;2023-07-13T03:19:15;18.30;99.90
13074;DHT22;6603;47.066;15.396;2023-07-13T03:21:41;18.30;99.90
13074;DHT22;6603;47.066;15.396;2023-07-13T03:24:07;18.20;99.90
13074;DHT22;6603;47.066;15.396;2023-07-13T03:26:33;18.20;99.90
13074;DHT22;6603;47.066;15.396;2023-07-13T03:28:59;18.30;99.90
13074;DHT22;6603;47.066;15.396;2023-07-13T03:31:28;18.20;99.90
13074;DHT22;6603;47.066;15.396;2023-07-13T03:33:56;18.20;99.90
13074;DHT22;6603;47.066;15.396;2023-07-13T03:36:26;18.10;99.90
13074;DHT22;6603;47.066;15.396;2023-07-13T03:38:55;18.10;99.90
13074;DHT22;6603;47.066;15.396;2023-07-13T03:41:22;18.20;99.90
13074;DHT22;6603;47.066;15.396;2023-07-13T03:43:49;18.20;99.90
13074;DHT22;6603;47.066;15.396;2023-07-13T03:46:16;18.30;99.90
13074;DHT22;6603;47.066;15.396;2023-07-13T03:48:44;18.30;99.90
13074;DHT22;6603;47.066;15.396;2023-07-13T03:51:12;18.30;99.90
13074;DHT22;6603;47.066;15.396;2023-07-13T03:53:44;18.40;99.90
13074;DHT22;6603;47.066;15.396;2023-07-13T03:56:10;18.30;99.90
13074;DHT22;6603;47.066;15.396;2023-07-13T03:58:39;18.30;99.90
13074;DHT22;6603;47.066;15.396;2023-07-13T04:01:08;18.20;99.90
13074;DHT22;6603;47.066;15.396;2023-07-13T04:03:35;18.10;99.90
13074;DHT22;6603;47.066;15.396;2023-07-13T04:06:06;18.10;99.90
13074;DHT22;6603;47.066;15.396;2023-07-13T04:08:35;18.00;99.90
13074;DHT22;6603;47.066;15.396;2023-07-13T04:11:03;18.10;99.90
13074;DHT22;6603;47.066;15.396;2023-07-13T04:13:29;18.20;99.90
13074;DHT22;6603;47.066;15.396;2023-07-13T04:15:55;18.10;99.90
13074;DHT22;6603;47.066;15.396;2023-07-13T04:18:21;18.10;99.90
13074;DHT22;6603;47.066;15.396;2023-07-13T04:20:48;18.10;99.90
13074;DHT22;6603;47.066;15.396;2023-07-13T04:23:15;18.10;99.90
13074;DHT22;6603;47.066;15.396;2023-07-13T04:25:46;18.10;99.90
13074;DHT22;6603;47.066;15.396;2023-07-13T04:28:16;18.10;99.90
13074;DHT22;6603;47.066;15.396;2023-07-13T04:30:44;18.20;99.90
13074;DHT22;6603;47.066;15.396;2023-07-13T04:33:10;18.20;99.90
13074;DHT22;6603;47.066;15.396;2023-07-13T04:35:36;18.30;99.90
13074;DHT22;6603;47.066;15.396;2023-07-13T04:38:03;18.30;99.90
13074;DHT22;6603;47.066;15.396;2023-07-13T04:40:29;18.30;99.90
13074;DHT22;6603;47.066;15.396;2023-07-13T04:42:56;18.30;99.90
13074;DHT22;6603;47.066;15.396;2023-07-13T04:45:22;18.40;99.90
13074;DHT22;6603;47.066;15.396;2023-07-13T04:47:49;18.50;99.90
13074;DHT22;6603;47.066;15.396;2023-07-13T04:50:16;18.50;99.90
13074;DHT22;6603;47.066;15.396;2023-07-13T04:52:46;18.40;99.90
13074;DHT22;6603;47.066;15.396;2023-07-13T04:55:13;18.50;99.90
13074;DHT22;6603;47.066;15.396;2023-07-13T04:57:39;18.50;99.90
13074;DHT22;6603;47.066;15.396;2023-07-13T05:00:06;18.60;99.90
13074;DHT22;6603;47.066;15.396;2023-07-13T05:02:33;18.50;99.90
13074;DHT22;6603;47.066;15.396;2023-07-13T05:05:01;18.60;99.90
13074;DHT22;6603;47.066;15.396;2023-07-13T05:07:27;18.70;99.90
13074;DHT22;6603;47.066;15.396;2023-07-13T05:09:52;18.60;99.90
13074;DHT22;6603;47.066;15.396;2023-07-13T05:12:18;18.60;99.90
13074;DHT22;6603;47.066;15.396;2023-07-13T05:14:44;18.70;99.90
13074;DHT22;6603;47.066;15.396;2023-07-13T05:17:10;18.70;99.90
13074;DHT22;6603;47.066;15.396;2023-07-13T05:19:36;18.80;99.90
13074;DHT22;6603;47.066;15.396;2023-07-13T05:22:02;18.80;99.90
13074;DHT22;6603;47.066;15.396;2023-07-13T05:24:29;18.90;99.90
13074;DHT22;6603;47.066;15.396;2023-07-13T05:26:55;18.90;99.90
13074;DHT22;6603;47.066;15.396;2023-07-13T05:29:22;19.00;99.90
13074;DHT22;6603;47.066;15.396;2023-07-13T05:31:48;19.10;99.90
13074;DHT22;6603;47.066;15.396;2023-07-13T05:34:14;19.30;99.90
13074;DHT22;6603;47.066;15.396;2023-07-13T05:36:41;19.40;99.90
13074;DHT22;6603;47.066;15.396;2023-07-13T05:39:06;19.50;99.90
13074;DHT22;6603;47.066;15.396;2023-07-13T05:41:33;19.50;99.90
13074;DHT22;6603;47.066;15.396;2023-07-13T05:43:59;19.70;99.90
13074;DHT22;6603;47.066;15.396;2023-07-13T05:46:25;19.80;99.90
13074;DHT22;6603;47.066;15.396;2023-07-13T05:48:51;20.00;99.90
13074;DHT22;6603;47.066;15.396;2023-07-13T05:51:17;20.00;99.90
13074;DHT22;6603;47.066;15.396;2023-07-13T05:53:42;20.00;99.90
13074;DHT22;6603;47.066;15.396;2023-07-13T05:56:08;20.00;99.90
13074;DHT22;6603;47.066;15.396;2023-07-13T05:58:34;20.10;99.90
13074;DHT22;6603;47.066;15.396;2023-07-13T06:01:10;20.20;99.90
13074;DHT22;6603;47.066;15.396;2023-07-13T06:03:36;20.20;99.90
13074;DHT22;6603;47.066;15.396;2023-07-13T06:06:05;20.30;99.90
13074;DHT22;6603;47.066;15.396;2023-07-13T06:08:31;20.30;99.90
13074;DHT22;6603;47.066;15.396;2023-07-13T06:11:16;20.50;99.90
13074;DHT22;6603;47.066;15.396;2023-07-13T06:13:43;20.60;99.90
13074;DHT22;6603;47.066;15.396;2023-07-13T06:16:10;20.60;98.70
13074;DHT22;6603;47.066;15.396;2023-07-13T06:18:37;20.70;99.90
13074;DHT22;6603;47.066;15.396;2023-07-13T06:21:11;20.80;99.90
13074;DHT22;6603;47.066;15.396;2023-07-13T06:23:38;20.90;99.90
13074;DHT22;6603;47.066;15.396;2023-07-13T06:26:04;20.80;99.90
13074;DHT22;6603;47.066;15.396;2023-07-13T06:28:31;21.00;99.90
13074;DHT22;6603;47.066;15.396;2023-07-13T06:30:58;21.20;99.90
13074;DHT22;6603;47.066;15.396;2023-07-13T06:33:25;21.20;99.90
13074;DHT22;6603;47.066;15.396;2023-07-13T06:35:50;21.20;1.00
13074;DHT22;6603;47.066;15.396;2023-07-13T06:38:16;21.40;1.00
13074;DHT22;6603;47.066;15.396;2023-07-13T06:40:42;21.60;1.00
13074;DHT22;6603;47.066;15.396;2023-07-13T06:43:08;21.80;39.00
13074;DHT22;6603;47.066;15.396;2023-07-13T06:45:42;21.90;1.00
13074;DHT22;6603;47.066;15.396;2023-07-13T06:48:07;21.90;1.00
13074;DHT22;6603;47.066;15.396;2023-07-13T06:50:33;22.00;1.00
13074;DHT22;6603;47.066;15.396;2023-07-13T06:53:00;22.00;1.00
13074;DHT22;6603;47.066;15.396;2023-07-13T06:55:26;22.00;99.90
13074;DHT22;6603;47.066;15.396;2023-07-13T06:57:52;21.90;1.00
13074;DHT22;6603;47.066;15.396;2023-07-13T07:00:18;21.90;99.90
13074;DHT22;6603;47.066;15.396;2023-07-13T07:02:43;22.10;1.00
13074;DHT22;6603;47.066;15.396;2023-07-13T07:05:09;22.10;1.00
13074;DHT22;6603;47.066;15.396;2023-07-13T07:07:35;22.10;59.30
13074;DHT22;6603;47.066;15.396;2023-07-13T07:10:02;22.20;1.00
13074;DHT22;6603;47.066;15.396;2023-07-13T07:12:28;22.20;4.60
13074;DHT22;6603;47.066;15.396;2023-07-13T07:14:54;22.30;1.00
13074;DHT22;6603;47.066;15.396;2023-07-13T07:17:20;22.50;1.00
13074;DHT22;6603;47.066;15.396;2023-07-13T07:19:46;22.60;1.00
13074;DHT22;6603;47.066;15.396;2023-07-13T07:22:12;22.60;99.90
13074;DHT22;6603;47.066;15.396;2023-07-13T07:24:38;22.80;99.90
13074;DHT22;6603;47.066;15.396;2023-07-13T07:27:04;23.00;1.00
13074;DHT22;6603;47.066;15.396;2023-07-13T07:29:30;22.90;99.90
13074;DHT22;6603;47.066;15.396;2023-07-13T07:31:55;23.10;1.00
13074;DHT22;6603;47.066;15.396;2023-07-13T07:34:21;23.30;1.00
13074;DHT22;6603;47.066;15.396;2023-07-13T07:36:47;23.40;1.00
13074;DHT22;6603;47.066;15.396;2023-07-13T07:39:13;23.50;1.00
13074;DHT22;6603;47.066;15.396;2023-07-13T07:41:41;23.50;1.00
13074;DHT22;6603;47.066;15.396;2023-07-13T07:44:07;23.60;1.00
13074;DHT22;6603;47.066;15.396;2023-07-13T07:46:35;23.60;1.00
13074;DHT22;6603;47.066;15.396;2023-07-13T07:49:01;23.70;1.00
13074;DHT22;6603;47.066;15.396;2023-07-13T07:51:27;23.80;1.00
13074;DHT22;6603;47.066;15.396;2023-07-13T07:53:54;23.80;1.00
13074;DHT22;6603;47.066;15.396;2023-07-13T07:56:19;23.70;1.00
13074;DHT22;6603;47.066;15.396;2023-07-13T07:58:45;23.80;1.00
13074;DHT22;6603;47.066;15.396;2023-07-13T08:01:11;23.80;1.00
13074;DHT22;6603;47.066;15.396;2023-07-13T08:03:37;24.00;99.90
13074;DHT22;6603;47.066;15.396;2023-07-13T08:06:03;24.20;1.00
13074;DHT22;6603;47.066;15.396;2023-07-13T08:08:44;24.20;1.00
13074;DHT22;6603;47.066;15.396;2023-07-13T08:11:10;24.20;99.90
13074;DHT22;6603;47.066;15.396;2023-07-13T08:13:37;24.30;1.00
13074;DHT22;6603;47.066;15.396;2023-07-13T08:16:05;24.30;1.00
13074;DHT22;6603;47.066;15.396;2023-07-13T08:18:32;24.30;45.50
13074;DHT22;6603;47.066;15.396;2023-07-13T08:20:58;24.40;1.00
13074;DHT22;6603;47.066;15.396;2023-07-13T08:23:25;24.60;35.40
13074;DHT22;6603;47.066;15.396;2023-07-13T08:25:55;24.60;1.00
13074;DHT22;6603;47.066;15.396;2023-07-13T08:28:21;24.60;1.00
13074;DHT22;6603;47.066;15.396;2023-07-13T08:30:48;24.60;1.00
13074;DHT22;6603;47.066;15.396;2023-07-13T08:33:19;24.60;1.00
13074;DHT22;6603;47.066;15.396;2023-07-13T08:35:46;24.80;1.00
13074;DHT22;6603;47.066;15.396;2023-07-13T08:38:13;24.90;1.00
13074;DHT22;6603;47.066;15.396;2023-07-13T08:40:39;24.80;1.00
13074;DHT22;6603;47.066;15.396;2023-07-13T08:43:12;25.00;99.90
13074;DHT22;6603;47.066;15.396;2023-07-13T08:45:53;25.30;1.00
13074;DHT22;6603;47.066;15.396;2023-07-13T08:49:14;25.40;1.00
13074;DHT22;6603;47.066;15.396;2023-07-13T08:51:33;25.20;99.90
13074;DHT22;6603;47.066;15.396;2023-07-13T08:54:20;25.40;1.00
13074;DHT22;6603;47.066;15.396;2023-07-13T08:56:50;25.60;99.90
13074;DHT22;6603;47.066;15.396;2023-07-13T08:59:21;25.90;1.00
13074;DHT22;6603;47.066;15.396;2023-07-13T09:02:25;26.10;99.90
13074;DHT22;6603;47.066;15.396;2023-07-13T09:04:56;26.30;99.90
13074;DHT22;6603;47.066;15.396;2023-07-13T09:07:41;26.10;89.10
13074;DHT22;6603;47.066;15.396;2023-07-13T09:10:16;26.40;99.90
13074;DHT22;6603;47.066;15.396;2023-07-13T09:15:43;26.40;4.60
13074;DHT22;6603;47.066;15.396;2023-07-13T09:21:15;26.50;4.80
13074;DHT22;6603;47.066;15.396;2023-07-13T09:23:43;26.80;1.00
13074;DHT22;6603;47.066;15.396;2023-07-13T09:26:20;27.20;26.40
13074;DHT22;6603;47.066;15.396;2023-07-13T09:31:49;27.60;1.00
13074;DHT22;6603;47.066;15.396;2023-07-13T09:34:18;27.80;39.90
13074;DHT22;6603;47.066;15.396;2023-07-13T09:36:44;28.00;1.00
13074;DHT22;6603;47.066;15.396;2023-07-13T09:39:37;27.90;1.00
13074;DHT22;6603;47.066;15.396;2023-07-13T09:44:54;27.90;1.00
13074;DHT22;6603;47.066;15.396;2023-07-13T09:47:26;27.90;1.00
13074;DHT22;6603;47.066;15.396;2023-07-13T09:50:08;27.90;1.00
13074;DHT22;6603;47.066;15.396;2023-07-13T09:52:43;28.30;1.00
13074;DHT22;6603;47.066;15.396;2023-07-13T09:55:34;28.60;1.00
13074;DHT22;6603;47.066;15.396;2023-07-13T10:00:32;28.50;1.00
13074;DHT22;6603;47.066;15.396;2023-07-13T10:03:18;28.30;1.00
13074;DHT22;6603;47.066;15.396;2023-07-13T10:05:47;28.40;1.00
13074;DHT22;6603;47.066;15.396;2023-07-13T10:08:23;28.20;1.00
13074;DHT22;6603;47.066;15.396;2023-07-13T10:10:59;28.40;1.00
13074;DHT22;6603;47.066;15.396;2023-07-13T10:13:36;28.30;1.00
13074;DHT22;6603;47.066;15.396;2023-07-13T10:16:05;28.40;1.00
13074;DHT22;6603;47.066;15.396;2023-07-13T10:23:41;28.70;1.00
13074;DHT22;6603;47.066;15.396;2023-07-13T10:26:16;28.80;1.00
13074;DHT22;6603;47.066;15.396;2023-07-13T10:28:45;29.00;1.00
13074;DHT22;6603;47.066;15.396;2023-07-13T10:31:14;29.10;1.00
13074;DHT22;6603;47.066;15.396;2023-07-13T10:33:41;29.00;1.00
13074;DHT22;6603;47.066;15.396;2023-07-13T10:36:15;29.10;1.00
13074;DHT22;6603;47.066;15.396;2023-07-13T10:38:43;28.90;1.00
13074;DHT22;6603;47.066;15.396;2023-07-13T10:41:15;29.10;1.00
13074;DHT22;6603;47.066;15.396;2023-07-13T10:43:46;28.90;1.00
13074;DHT22;6603;47.066;15.396;2023-07-13T10:46:19;29.00;1.00
13074;DHT22;6603;47.066;15.396;2023-07-13T10:48:49;29.00;1.00
13074;DHT22;6603;47.066;15.396;2023-07-13T10:51:18;29.20;1.00
13074;DHT22;6603;47.066;15.396;2023-07-13T10:54:10;29.20;1.00
13074;DHT22;6603;47.066;15.396;2023-07-13T10:56:34;29.00;1.00
13074;DHT22;6603;47.066;15.396;2023-07-13T10:59:24;28.90;1.00
13074;DHT22;6603;47.066;15.396;2023-07-13T11:04:20;29.10;1.00
13074;DHT22;6603;47.066;15.396;2023-07-13T11:06:50;29.20;1.00
13074;DHT22;6603;47.066;15.396;2023-07-13T11:11:45;29.30;1.00
13074;DHT22;6603;47.066;15.396;2023-07-13T11:14:39;29.30;1.00
13074;DHT22;6603;47.066;15.396;2023-07-13T11:17:49;29.40;1.00
13074;DHT22;6603;47.066;15.396;2023-07-13T11:22:51;29.30;1.00
13074;DHT22;6603;47.066;15.396;2023-07-13T11:38:23;29.10;1.00
13074;DHT22;6603;47.066;15.396;2023-07-13T11:40:54;28.90;1.00
13074;DHT22;6603;47.066;15.396;2023-07-13T11:43:21;28.70;1.00
13074;DHT22;6603;47.066;15.396;2023-07-13T11:45:50;28.80;75.00
13074;DHT22;6603;47.066;15.396;2023-07-13T11:48:20;28.70;99.90
13074;DHT22;6603;47.066;15.396;2023-07-13T11:50:53;28.40;70.50
13074;DHT22;6603;47.066;15.396;2023-07-13T11:53:21;28.00;99.90
13074;DHT22;6603;47.066;15.396;2023-07-13T11:55:47;28.30;99.90
13074;DHT22;6603;47.066;15.396;2023-07-13T11:58:19;28.00;99.90
13074;DHT22;6603;47.066;15.396;2023-07-13T12:00:46;27.70;99.90
13074;DHT22;6603;47.066;15.396;2023-07-13T12:03:19;28.20;99.90
13074;DHT22;6603;47.066;15.396;2023-07-13T12:06:01;28.40;1.00
13074;DHT22;6603;47.066;15.396;2023-07-13T12:08:28;28.40;99.90
13074;DHT22;6603;47.066;15.396;2023-07-13T12:11:05;28.50;1.00
13074;DHT22;6603;47.066;15.396;2023-07-13T12:13:36;28.60;99.90
13074;DHT22;6603;47.066;15.396;2023-07-13T12:16:16;28.60;99.90
13074;DHT22;6603;47.066;15.396;2023-07-13T12:18:44;28.60;1.00
13074;DHT22;6603;47.066;15.396;2023-07-13T12:21:17;28.70;1.00
13074;DHT22;6603;47.066;15.396;2023-07-13T12:23:44;28.80;1.00
13074;DHT22;6603;47.066;15.396;2023-07-13T12:26:14;28.50;1.00
13074;DHT22;6603;47.066;15.396;2023-07-13T12:34:06;27.90;1.00
13074;DHT22;6603;47.066;15.396;2023-07-13T12:36:35;27.50;99.90
13074;DHT22;6603;47.066;15.396;2023-07-13T12:39:11;27.50;99.90
13074;DHT22;6603;47.066;15.396;2023-07-13T12:41:38;27.50;1.00
13074;DHT22;6603;47.066;15.396;2023-07-13T12:44:12;27.40;99.90
13074;DHT22;6603;47.066;15.396;2023-07-13T12:46:39;27.20;1.00
13074;DHT22;6603;47.066;15.396;2023-07-13T12:49:17;26.90;1.00
13074;DHT22;6603;47.066;15.396;2023-07-13T12:51:44;26.70;1.00
13074;DHT22;6603;47.066;15.396;2023-07-13T12:54:16;26.50;1.00
13074;DHT22;6603;47.066;15.396;2023-07-13T12:56:43;26.40;1.00
13074;DHT22;6603;47.066;15.396;2023-07-13T12:59:21;25.90;76.00
13074;DHT22;6603;47.066;15.396;2023-07-13T13:01:48;25.60;1.00
13074;DHT22;6603;47.066;15.396;2023-07-13T13:04:16;25.20;1.00
13074;DHT22;6603;47.066;15.396;2023-07-13T13:06:42;25.00;99.90
13074;DHT22;6603;47.066;15.396;2023-07-13T13:09:13;24.80;1.00
13074;DHT22;6603;47.066;15.396;2023-07-13T13:11:41;24.70;1.00
13074;DHT22;6603;47.066;15.396;2023-07-13T13:14:08;24.70;1.00
13074;DHT22;6603;47.066;15.396;2023-07-13T13:16:38;24.60;1.00
13074;DHT22;6603;47.066;15.396;2023-07-13T13:19:18;24.50;1.00
13074;DHT22;6603;47.066;15.396;2023-07-13T13:21:46;24.20;1.00
13074;DHT22;6603;47.066;15.396;2023-07-13T13:24:17;24.20;1.00
13074;DHT22;6603;47.066;15.396;2023-07-13T13:26:46;24.20;1.00
13074;DHT22;6603;47.066;15.396;2023-07-13T13:29:14;24.10;1.00
13074;DHT22;6603;47.066;15.396;2023-07-13T13:31:42;24.00;1.00
13074;DHT22;6603;47.066;15.396;2023-07-13T13:34:11;23.90;1.00
13074;DHT22;6603;47.066;15.396;2023-07-13T13:36:37;23.70;1.00
13074;DHT22;6603;47.066;15.396;2023-07-13T13:39:33;23.60;1.00
13074;DHT22;6603;47.066;15.396;2023-07-13T13:41:57;23.70;1.00
13074;DHT22;6603;47.066;15.396;2023-07-13T13:44:23;23.40;1.00
13074;DHT22;6603;47.066;15.396;2023-07-13T13:46:52;23.30;1.00
13074;DHT22;6603;47.066;15.396;2023-07-13T13:49:25;23.20;1.00
13074;DHT22;6603;47.066;15.396;2023-07-13T13:51:52;23.20;1.00
13074;DHT22;6603;47.066;15.396;2023-07-13T13:54:20;23.20;1.00
13074;DHT22;6603;47.066;15.396;2023-07-13T13:56:48;23.40;1.00
13074;DHT22;6603;47.066;15.396;2023-07-13T13:59:14;23.30;1.00
13074;DHT22;6603;47.066;15.396;2023-07-13T15:00:45;22.10;1.00
13074;DHT22;6603;47.066;15.396;2023-07-13T15:03:23;21.90;1.00
13074;DHT22;6603;47.066;15.396;2023-07-13T15:05:50;21.80;1.00
13074;DHT22;6603;47.066;15.396;2023-07-13T15:08:16;21.70;1.00
13074;DHT22;6603;47.066;15.396;2023-07-13T15:10:42;21.70;1.00
13074;DHT22;6603;47.066;15.396;2023-07-13T15:13:21;21.60;1.00
13074;DHT22;6603;47.066;15.396;2023-07-13T15:15:51;21.50;1.00
13074;DHT22;6603;47.066;15.396;2023-07-13T15:18:20;21.40;1.00
13074;DHT22;6603;47.066;15.396;2023-07-13T15:20:47;21.40;1.00
13074;DHT22;6603;47.066;15.396;2023-07-13T15:23:15;21.40;1.00
13074;DHT22;6603;47.066;15.396;2023-07-13T15:25:42;21.20;1.00
13074;DHT22;6603;47.066;15.396;2023-07-13T15:28:10;21.00;19.60
13074;DHT22;6603;47.066;15.396;2023-07-13T15:30:48;20.90;62.60
13074;DHT22;6603;47.066;15.396;2023-07-13T15:35:43;20.50;99.90
13074;DHT22;6603;47.066;15.396;2023-07-13T15:38:18;20.30;99.90
13074;DHT22;6603;47.066;15.396;2023-07-13T15:40:44;20.00;99.90
13074;DHT22;6603;47.066;15.396;2023-07-13T15:43:12;19.80;99.90
13074;DHT22;6603;47.066;15.396;2023-07-13T15:45:39;19.60;99.90
13074;DHT22;6603;47.066;15.396;2023-07-13T15:48:25;19.40;99.90
13074;DHT22;6603;47.066;15.396;2023-07-13T15:51:01;19.40;99.90
13074;DHT22;6603;47.066;15.396;2023-07-13T15:53:35;19.40;99.90
13074;DHT22;6603;47.066;15.396;2023-07-13T15:56:17;19.50;99.90
13074;DHT22;6603;47.066;15.396;2023-07-13T15:58:43;19.30;99.90
13074;DHT22;6603;47.066;15.396;2023-07-13T16:01:11;19.40;99.90
13074;DHT22;6603;47.066;15.396;2023-07-13T16:03:37;19.40;99.90
13074;DHT22;6603;47.066;15.396;2023-07-13T16:06:02;19.50;99.90
13074;DHT22;6603;47.066;15.396;2023-07-13T16:08:31;19.50;99.90
13074;DHT22;6603;47.066;15.396;2023-07-13T16:11:00;19.50;99.90
13074;DHT22;6603;47.066;15.396;2023-07-13T16:13:26;19.50;99.90
13074;DHT22;6603;47.066;15.396;2023-07-13T16:15:53;19.40;99.90
13074;DHT22;6603;47.066;15.396;2023-07-13T16:18:21;19.40;99.90
13074;DHT22;6603;47.066;15.396;2023-07-13T16:20:48;19.30;99.90
13074;DHT22;6603;47.066;15.396;2023-07-13T16:23:16;19.30;99.90
13074;DHT22;6603;47.066;15.396;2023-07-13T16:25:42;19.30;99.90
13074;DHT22;6603;47.066;15.396;2023-07-13T16:28:11;19.30;99.90
13074;DHT22;6603;47.066;15.396;2023-07-13T16:30:37;19.40;99.90
13074;DHT22;6603;47.066;15.396;2023-07-13T16:33:05;19.60;99.90
13074;DHT22;6603;47.066;15.396;2023-07-13T16:35:40;19.50;99.90
13074;DHT22;6603;47.066;15.396;2023-07-13T16:38:21;19.50;99.90
13074;DHT22;6603;47.066;15.396;2023-07-13T16:40:48;19.60;99.90
13074;DHT22;6603;47.066;15.396;2023-07-13T16:43:16;19.50;99.90
13074;DHT22;6603;47.066;15.396;2023-07-13T16:45:47;19.50;99.90
13074;DHT22;6603;47.066;15.396;2023-07-13T16:48:21;19.50;99.90
13074;DHT22;6603;47.066;15.396;2023-07-13T16:50:54;19.50;99.90
13074;DHT22;6603;47.066;15.396;2023-07-13T16:53:28;19.60;99.90
13074;DHT22;6603;47.066;15.396;2023-07-13T16:55:55;19.70;99.90
13074;DHT22;6603;47.066;15.396;2023-07-13T16:58:23;19.70;99.90
13074;DHT22;6603;47.066;15.396;2023-07-13T17:00:57;19.70;99.90
13074;DHT22;6603;47.066;15.396;2023-07-13T17:03:23;19.60;99.90
13074;DHT22;6603;47.066;15.396;2023-07-13T17:05:53;19.60;99.90
13074;DHT22;6603;47.066;15.396;2023-07-13T17:08:32;19.50;99.90
13074;DHT22;6603;47.066;15.396;2023-07-13T17:11:00;19.50;99.90
13074;DHT22;6603;47.066;15.396;2023-07-13T17:13:28;19.40;99.90
13074;DHT22;6603;47.066;15.396;2023-07-13T17:15:55;19.50;99.90
13074;DHT22;6603;47.066;15.396;2023-07-13T17:18:23;19.40;99.90
13074;DHT22;6603;47.066;15.396;2023-07-13T17:20:50;19.30;99.90
13074;DHT22;6603;47.066;15.396;2023-07-13T17:23:25;19.30;99.90
13074;DHT22;6603;47.066;15.396;2023-07-13T17:25:53;19.30;99.90
13074;DHT22;6603;47.066;15.396;2023-07-13T17:28:20;19.10;99.90
13074;DHT22;6603;47.066;15.396;2023-07-13T17:30:49;19.00;99.90
13074;DHT22;6603;47.066;15.396;2023-07-13T17:33:39;19.00;99.90
13074;DHT22;6603;47.066;15.396;2023-07-13T17:36:15;18.90;99.90
13074;DHT22;6603;47.066;15.396;2023-07-13T17:38:47;18.80;99.90
13074;DHT22;6603;47.066;15.396;2023-07-13T17:41:17;18.80;99.90